createdAt,value
2022-10-16T00:01:11.945Z,99.90
2022-10-16T00:03:40.739Z,99.90
2022-10-16T00:06:09.551Z,99.90
2022-10-16T00:08:38.170Z,99.90
2022-10-16T00:11:08.807Z,99.90
2022-10-16T00:13:38.917Z,99.90
2022-10-16T00:16:09.390Z,99.90
2022-10-16T00:18:38.143Z,99.90
2022-10-16T00:21:08.193Z,99.90
2022-10-16T00:23:36.894Z,99.90
2022-10-16T00:26:06.781Z,99.90
2022-10-16T00:28:35.675Z,99.90
2022-10-16T00:31:05.943Z,99.90
2022-10-16T00:33:35.873Z,99.90
2022-10-16T00:36:05.868Z,99.90
2022-10-16T00:38:33.915Z,99.90
2022-10-16T00:41:01.975Z,99.90
2022-10-16T00:43:39.571Z,99.90
2022-10-16T00:46:15.847Z,99.90
2022-10-16T00:48:50.719Z,99.90
2022-10-16T00:51:21.391Z,99.90
2022-10-16T00:53:50.176Z,99.90
2022-10-16T00:56:19.161Z,99.90
2022-10-16T00:58:47.226Z,99.90
2022-10-16T01:01:15.268Z,99.90
2022-10-16T01:03:44.845Z,99.90
2022-10-16T01:09:15.527Z,99.90
2022-10-16T01:11:50.939Z,99.90
2022-10-16T01:14:28.658Z,99.90
2022-10-16T01:17:03.790Z,99.90
2022-10-16T01:20:02.409Z,99.90
2022-10-16T01:22:40.639Z,99.90
2022-10-16T01:25:16.059Z,99.90
2022-10-16T01:27:49.053Z,99.90
2022-10-16T01:30:22.297Z,99.90
2022-10-16T01:32:54.670Z,99.90
2022-10-16T01:35:27.322Z,99.90
2022-10-16T01:37:59.548Z,99.90
2022-10-16T01:40:29.595Z,99.90
2022-10-16T01:43:02.504Z,99.90
2022-10-16T01:45:33.667Z,99.90
2022-10-16T01:48:05.129Z,99.90
2022-10-16T01:50:35.099Z,99.90
2022-10-16T01:53:05.003Z,99.90
2022-10-16T01:55:38.002Z,99.90
2022-10-16T01:58:10.019Z,99.90
2022-10-16T02:00:41.242Z,99.90
2022-10-16T02:03:11.451Z,99.90
2022-10-16T02:05:44.500Z,99.90
2022-10-16T02:11:56.899Z,99.90
2022-10-16T02:14:26.679Z,99.90
2022-10-16T02:16:54.714Z,99.90
2022-10-16T02:19:23.802Z,99.90
2022-10-16T02:21:55.914Z,99.90
2022-10-16T02:24:31.921Z,99.90
2022-10-16T02:27:05.669Z,99.90
2022-10-16T02:29:38.677Z,99.90
2022-10-16T02:32:08.594Z,99.90
2022-10-16T02:34:38.400Z,99.90
2022-10-16T02:37:07.694Z,99.90
2022-10-16T02:39:36.762Z,99.90
2022-10-16T02:42:04.920Z,99.90
2022-10-16T02:44:34.226Z,99.90
2022-10-16T02:47:02.328Z,99.90
2022-10-16T02:49:30.342Z,99.90
2022-10-16T02:51:58.339Z,99.90
2022-10-16T02:54:26.342Z,99.90
2022-10-16T02:56:54.359Z,99.90
2022-10-16T02:59:22.346Z,99.90
2022-10-16T03:01:51.794Z,99.90
2022-10-16T03:04:19.912Z,99.90
2022-10-16T03:06:47.915Z,99.90
2022-10-16T03:09:16.154Z,99.90
2022-10-16T03:11:44.118Z,99.90
2022-10-16T03:14:12.101Z,99.90
2022-10-16T03:16:40.091Z,99.90
2022-10-16T03:19:09.434Z,99.90
2022-10-16T03:21:37.484Z,99.90
2022-10-16T03:24:06.329Z,99.90
2022-10-16T03:26:34.306Z,99.90
2022-10-16T03:29:03.753Z,99.90
2022-10-16T03:31:32.325Z,99.90
2022-10-16T03:34:00.345Z,99.90
2022-10-16T03:36:29.738Z,99.90
2022-10-16T03:38:57.735Z,99.90
2022-10-16T03:41:25.749Z,99.90
2022-10-16T03:43:53.767Z,99.90
2022-10-16T03:46:21.783Z,99.90
2022-10-16T03:48:49.786Z,99.90
2022-10-16T03:51:17.845Z,99.90
2022-10-16T03:53:47.203Z,99.90
2022-10-16T03:56:15.183Z,99.90
2022-10-16T03:58:43.176Z,99.90
2022-10-16T04:01:11.266Z,99.90
2022-10-16T04:03:39.302Z,99.90
2022-10-16T04:06:07.522Z,99.90
2022-10-16T04:08:37.499Z,99.90
2022-10-16T04:11:07.564Z,99.90
2022-10-16T04:13:35.538Z,99.90
2022-10-16T04:16:03.546Z,99.90
2022-10-16T04:18:31.526Z,99.90
2022-10-16T04:21:03.587Z,99.90
2022-10-16T04:23:31.609Z,99.90
2022-10-16T04:25:59.987Z,99.90
2022-10-16T04:28:30.265Z,99.90
2022-10-16T04:30:58.590Z,99.90
2022-10-16T04:33:26.540Z,99.90
2022-10-16T04:35:59.362Z,99.90
2022-10-16T04:38:27.419Z,99.90
2022-10-16T04:40:55.606Z,99.90
2022-10-16T04:43:24.004Z,99.90
2022-10-16T04:45:53.966Z,99.90
2022-10-16T04:48:22.288Z,99.90
2022-10-16T04:50:53.075Z,99.90
2022-10-16T04:53:23.499Z,99.90
2022-10-16T04:55:51.920Z,99.90
2022-10-16T04:58:19.919Z,99.90
2022-10-16T05:00:48.066Z,99.90
2022-10-16T05:03:17.529Z,99.90
2022-10-16T05:05:47.134Z,99.90
2022-10-16T05:08:16.301Z,99.90
2022-10-16T05:10:45.598Z,99.90
2022-10-16T05:13:14.207Z,99.90
2022-10-16T05:15:42.237Z,99.90
2022-10-16T05:18:11.146Z,99.90
2022-10-16T05:20:40.480Z,99.90
2022-10-16T05:23:08.586Z,99.90
2022-10-16T05:25:36.617Z,99.90
2022-10-16T05:28:05.016Z,99.90
2022-10-16T05:30:33.022Z,99.90
2022-10-16T05:33:00.990Z,99.90
2022-10-16T05:35:29.008Z,99.90
2022-10-16T05:37:58.385Z,99.90
2022-10-16T05:40:26.474Z,99.90
2022-10-16T05:42:57.291Z,99.90
2022-10-16T05:45:25.509Z,99.90
2022-10-16T05:47:53.481Z,99.90
2022-10-16T05:50:21.501Z,99.90
2022-10-16T05:52:49.480Z,99.90
2022-10-16T05:55:18.922Z,99.90
2022-10-16T05:57:46.937Z,99.90
2022-10-16T06:00:15.167Z,99.90
2022-10-16T06:02:43.165Z,99.90
2022-10-16T06:05:11.191Z,99.90
2022-10-16T06:07:39.396Z,99.90
2022-10-16T06:10:08.719Z,99.90
2022-10-16T06:12:38.109Z,99.90
2022-10-16T06:15:06.851Z,99.90
2022-10-16T06:17:34.844Z,99.90
2022-10-16T06:20:10.338Z,99.90
2022-10-16T06:22:39.603Z,99.90
2022-10-16T06:25:08.254Z,99.90
2022-10-16T06:27:37.610Z,99.90
2022-10-16T06:30:06.460Z,99.90
2022-10-16T06:32:34.494Z,99.90
2022-10-16T06:35:02.469Z,99.90
2022-10-16T06:37:30.481Z,99.90
2022-10-16T06:39:58.513Z,99.90
2022-10-16T06:42:26.758Z,99.90
2022-10-16T06:44:56.386Z,99.90
2022-10-16T06:47:24.660Z,99.90
2022-10-16T06:49:54.351Z,99.90
2022-10-16T06:52:22.645Z,99.90
2022-10-16T06:54:51.832Z,99.90
2022-10-16T06:57:19.844Z,99.90
2022-10-16T06:59:49.337Z,99.90
2022-10-16T07:02:21.450Z,99.90
2022-10-16T07:04:49.800Z,99.90
2022-10-16T07:07:17.822Z,99.90
2022-10-16T07:09:45.834Z,99.90
2022-10-16T07:12:13.793Z,99.90
2022-10-16T07:14:41.828Z,99.90
2022-10-16T07:17:09.787Z,99.90
2022-10-16T07:19:39.181Z,99.90
2022-10-16T07:22:07.499Z,99.90
2022-10-16T07:24:35.506Z,99.90
2022-10-16T07:27:03.482Z,99.90
2022-10-16T07:29:31.496Z,99.90
2022-10-16T07:31:59.450Z,99.90
2022-10-16T07:34:28.410Z,99.90
2022-10-16T07:36:57.823Z,99.90
2022-10-16T07:39:25.924Z,99.90
2022-10-16T07:41:53.899Z,99.90
2022-10-16T07:44:22.003Z,99.90
2022-10-16T07:46:50.002Z,99.90
2022-10-16T07:49:18.041Z,99.90
2022-10-16T07:51:46.032Z,99.90
2022-10-16T07:54:15.377Z,99.90
2022-10-16T07:56:44.098Z,99.90
2022-10-16T07:59:12.443Z,99.90
2022-10-16T08:01:40.548Z,99.90
2022-10-16T08:04:08.562Z,99.90
2022-10-16T08:06:39.326Z,99.90
2022-10-16T08:09:07.909Z,99.90
2022-10-16T08:11:37.355Z,99.90
2022-10-16T08:14:05.332Z,99.90
2022-10-16T08:16:33.295Z,99.90
2022-10-16T08:19:01.329Z,99.90
2022-10-16T08:21:29.366Z,99.90
2022-10-16T08:23:58.649Z,99.90
2022-10-16T08:26:28.337Z,99.90
2022-10-16T08:28:58.011Z,99.90
2022-10-16T08:31:27.031Z,99.90
2022-10-16T08:33:55.338Z,99.90
2022-10-16T08:36:23.479Z,99.90
2022-10-16T08:38:55.042Z,99.90
2022-10-16T08:41:53.212Z,99.90
2022-10-16T08:45:03.586Z,99.90
2022-10-16T08:47:45.400Z,99.90
2022-10-16T08:50:16.245Z,99.90
2022-10-16T08:52:46.377Z,99.90
2022-10-16T08:55:30.445Z,99.90
2022-10-16T08:57:59.110Z,99.90
2022-10-16T09:00:29.794Z,99.90
2022-10-16T09:03:07.953Z,99.90
2022-10-16T09:05:51.485Z,99.90
2022-10-16T09:08:30.268Z,99.90
2022-10-16T09:11:03.643Z,99.90
2022-10-16T09:13:38.265Z,99.90
2022-10-16T09:16:18.874Z,99.90
2022-10-16T09:18:54.322Z,99.90
2022-10-16T09:21:26.101Z,99.90
2022-10-16T09:23:55.955Z,99.90
2022-10-16T09:28:57.793Z,99.90
2022-10-16T09:31:27.242Z,99.90
2022-10-16T09:34:00.202Z,99.90
2022-10-16T09:36:30.546Z,99.90
2022-10-16T09:39:06.646Z,99.90
2022-10-16T09:41:37.693Z,99.90
2022-10-16T09:44:08.199Z,99.90
2022-10-16T09:46:38.719Z,99.90
2022-10-16T09:49:20.550Z,99.90
2022-10-16T09:51:48.653Z,99.90
2022-10-16T09:54:22.325Z,99.90
2022-10-16T09:56:52.969Z,99.90
2022-10-16T09:59:24.650Z,99.90
2022-10-16T10:01:56.072Z,99.90
2022-10-16T10:04:26.678Z,96.90
2022-10-16T10:06:56.239Z,95.00
2022-10-16T10:09:26.790Z,95.40
2022-10-16T10:11:56.820Z,95.10
2022-10-16T10:14:30.958Z,93.80
2022-10-16T10:17:16.232Z,92.50
2022-10-16T10:19:48.889Z,91.20
2022-10-16T10:22:41.029Z,86.30
2022-10-16T10:25:22.025Z,90.20
2022-10-16T10:28:11.481Z,93.50
2022-10-16T10:30:46.174Z,92.30
2022-10-16T10:33:27.050Z,95.50
2022-10-16T10:36:05.790Z,94.00
2022-10-16T10:38:42.806Z,90.20
2022-10-16T10:41:33.184Z,91.60
2022-10-16T10:44:12.676Z,90.70
2022-10-16T10:46:47.162Z,89.10
2022-10-16T10:49:31.267Z,89.50
2022-10-16T10:52:12.618Z,84.80
2022-10-16T10:54:49.165Z,81.70
2022-10-16T10:57:27.465Z,86.60
2022-10-16T11:00:16.768Z,84.70
2022-10-16T11:02:54.210Z,85.20
2022-10-16T11:05:36.951Z,82.10
2022-10-16T11:08:12.293Z,82.40
2022-10-16T11:10:48.909Z,83.30
2022-10-16T11:13:37.058Z,81.20
2022-10-16T11:16:14.297Z,80.10
2022-10-16T11:18:51.849Z,78.10
2022-10-16T11:21:28.829Z,77.10
2022-10-16T11:24:03.820Z,79.40
2022-10-16T11:26:37.675Z,78.10
2022-10-16T11:29:13.003Z,79.90
2022-10-16T11:31:45.634Z,82.00
2022-10-16T11:34:23.697Z,85.40
2022-10-16T11:36:58.222Z,90.30
2022-10-16T11:39:28.722Z,92.90
2022-10-16T11:42:01.789Z,94.00
2022-10-16T11:44:42.757Z,89.90
2022-10-16T11:47:46.472Z,86.90
2022-10-16T11:50:22.691Z,87.30
2022-10-16T11:52:58.546Z,88.50
2022-10-16T11:55:32.396Z,90.40
2022-10-16T11:58:05.357Z,88.40
2022-10-16T12:00:41.582Z,87.40
2022-10-16T12:03:19.746Z,87.60
2022-10-16T12:06:00.514Z,86.00
2022-10-16T12:08:30.466Z,86.80
2022-10-16T12:11:10.042Z,87.30
2022-10-16T12:13:39.729Z,87.70
2022-10-16T12:16:09.304Z,87.60
2022-10-16T12:18:37.327Z,87.00
2022-10-16T12:21:07.651Z,87.30
2022-10-16T12:23:40.570Z,90.20
2022-10-16T12:26:08.890Z,90.10
2022-10-16T12:28:38.286Z,87.30
2022-10-16T12:31:10.920Z,91.00
2022-10-16T12:33:42.202Z,94.10
2022-10-16T12:36:17.011Z,96.50
2022-10-16T12:38:53.012Z,98.40
2022-10-16T12:41:28.862Z,94.40
2022-10-16T12:43:57.365Z,94.60
2022-10-16T12:46:41.373Z,96.60
2022-10-16T12:49:25.388Z,97.00
2022-10-16T12:51:55.373Z,94.50
2022-10-16T12:54:30.146Z,92.70
2022-10-16T12:57:23.389Z,94.30
2022-10-16T12:59:59.146Z,94.40
2022-10-16T13:02:50.074Z,95.50
2022-10-16T13:05:28.493Z,95.40
2022-10-16T13:08:12.302Z,96.40
2022-10-16T13:10:47.314Z,97.90
2022-10-16T13:13:38.892Z,96.00
2022-10-16T13:16:16.495Z,99.90
2022-10-16T13:18:52.655Z,97.90
2022-10-16T13:21:34.763Z,96.30
2022-10-16T13:24:13.564Z,96.90
2022-10-16T13:26:48.195Z,97.00
2022-10-16T13:29:16.667Z,98.20
2022-10-16T13:31:46.279Z,98.50
2022-10-16T13:34:18.901Z,98.30
2022-10-16T13:36:51.202Z,98.80
2022-10-16T13:39:25.638Z,98.40
2022-10-16T13:44:50.652Z,98.40
2022-10-16T13:47:20.124Z,99.70
2022-10-16T13:49:48.902Z,99.10
2022-10-16T13:52:22.422Z,99.20
2022-10-16T13:54:50.472Z,97.40
2022-10-16T13:57:27.288Z,97.70
2022-10-16T13:59:56.942Z,99.20
2022-10-16T14:02:28.886Z,99.90
2022-10-16T14:04:57.843Z,99.90
2022-10-16T14:07:28.282Z,99.90
2022-10-16T14:09:57.592Z,99.90
2022-10-16T14:12:28.313Z,99.90
2022-10-16T14:14:59.350Z,99.90
2022-10-16T14:17:30.062Z,99.90
2022-10-16T14:20:02.740Z,99.90
2022-10-16T14:22:34.961Z,99.90
2022-10-16T14:25:03.981Z,99.90
2022-10-16T14:27:35.873Z,99.90
2022-10-16T14:30:16.033Z,99.90
2022-10-16T14:32:54.663Z,99.90
2022-10-16T14:35:31.832Z,99.90
2022-10-16T14:38:02.489Z,99.90
2022-10-16T14:40:32.609Z,99.90
2022-10-16T14:43:03.363Z,99.90
2022-10-16T14:45:35.105Z,99.90
2022-10-16T14:48:07.416Z,99.90
2022-10-16T14:50:35.417Z,99.90
2022-10-16T14:53:03.524Z,99.90
2022-10-16T14:55:31.620Z,99.90
2022-10-16T14:58:01.178Z,99.90
2022-10-16T15:00:29.413Z,99.90
2022-10-16T15:02:57.438Z,99.90
2022-10-16T15:05:27.359Z,99.90
2022-10-16T15:07:56.766Z,99.90
2022-10-16T15:10:27.226Z,99.90
2022-10-16T15:12:55.448Z,99.90
2022-10-16T15:15:38.471Z,99.90
2022-10-16T15:18:07.033Z,99.90
2022-10-16T15:20:36.955Z,99.90
2022-10-16T15:23:08.040Z,99.90
2022-10-16T15:25:40.557Z,99.90
2022-10-16T15:28:08.864Z,99.90
2022-10-16T15:30:39.118Z,99.90
2022-10-16T15:33:13.133Z,99.90
2022-10-16T15:35:41.185Z,99.90
2022-10-16T15:38:11.202Z,99.90
2022-10-16T15:40:39.555Z,99.90
2022-10-16T15:43:07.552Z,99.90
2022-10-16T15:45:35.689Z,99.90
2022-10-16T15:48:05.449Z,99.90
2022-10-16T15:50:34.239Z,99.90
2022-10-16T15:53:02.281Z,99.90
2022-10-16T15:55:30.648Z,99.90
2022-10-16T15:57:58.682Z,99.90
2022-10-16T16:00:26.689Z,99.90
2022-10-16T16:02:55.591Z,99.90
2022-10-16T16:05:25.273Z,99.90
2022-10-16T16:07:53.678Z,99.90
2022-10-16T16:10:22.564Z,99.90
2022-10-16T16:12:52.864Z,99.90
2022-10-16T16:15:22.252Z,99.90
2022-10-16T16:17:50.907Z,99.90
2022-10-16T16:20:19.128Z,99.90
2022-10-16T16:22:48.553Z,99.90
2022-10-16T16:25:16.601Z,99.90
2022-10-16T16:27:45.346Z,99.90
2022-10-16T16:30:18.275Z,99.90
2022-10-16T16:32:48.009Z,99.90
2022-10-16T16:35:16.135Z,99.90
2022-10-16T16:37:44.282Z,99.90
2022-10-16T16:40:13.802Z,99.90
2022-10-16T16:42:41.797Z,99.90
2022-10-16T16:45:10.906Z,99.90
2022-10-16T16:47:39.374Z,99.90
2022-10-16T16:50:08.381Z,99.90
2022-10-16T16:52:36.675Z,99.90
2022-10-16T16:55:04.914Z,99.90
2022-10-16T16:57:34.342Z,99.90
2022-10-16T17:00:02.466Z,99.90
2022-10-16T17:02:30.480Z,99.90
2022-10-16T17:04:58.717Z,99.90
2022-10-16T17:07:28.431Z,99.90
2022-10-16T17:09:56.860Z,99.90
2022-10-16T17:12:24.997Z,99.90
2022-10-16T17:14:54.377Z,99.90
2022-10-16T17:17:22.405Z,99.90
2022-10-16T17:19:51.969Z,99.90
2022-10-16T17:22:20.618Z,99.90
2022-10-16T17:24:52.117Z,99.90
2022-10-16T17:27:20.515Z,99.90
2022-10-16T17:29:52.874Z,99.90
2022-10-16T17:32:23.662Z,99.90
2022-10-16T17:34:51.796Z,99.90
2022-10-16T17:37:19.790Z,99.90
2022-10-16T17:39:48.022Z,99.90
2022-10-16T17:42:16.059Z,99.90
2022-10-16T17:44:44.128Z,99.90
2022-10-16T17:47:12.409Z,99.90
2022-10-16T17:49:41.854Z,99.90
2022-10-16T17:52:09.945Z,99.90
2022-10-16T17:54:37.979Z,99.90
2022-10-16T17:57:05.958Z,99.90
2022-10-16T17:59:34.100Z,99.90
2022-10-16T18:02:02.149Z,99.90
2022-10-16T18:04:30.445Z,99.90
2022-10-16T18:07:00.514Z,99.90
2022-10-16T18:09:28.872Z,99.90
2022-10-16T18:12:00.522Z,99.90
2022-10-16T18:14:30.523Z,99.90
2022-10-16T18:16:59.636Z,99.90
2022-10-16T18:19:28.019Z,99.90
2022-10-16T18:21:56.545Z,99.90
2022-10-16T18:24:26.888Z,99.90
2022-10-16T18:26:57.338Z,99.90
2022-10-16T18:29:26.473Z,99.90
2022-10-16T18:31:54.651Z,99.90
2022-10-16T18:34:23.042Z,99.90
2022-10-16T18:36:54.184Z,99.90
2022-10-16T18:39:24.673Z,99.90
2022-10-16T18:41:59.463Z,99.90
2022-10-16T18:44:27.845Z,99.90
2022-10-16T18:46:58.967Z,99.90
2022-10-16T18:49:27.306Z,99.90
2022-10-16T18:51:57.070Z,99.90
2022-10-16T18:54:26.122Z,99.90
2022-10-16T18:56:55.549Z,99.90
2022-10-16T18:59:23.880Z,99.90
2022-10-16T19:01:52.449Z,99.90
2022-10-16T19:04:22.415Z,99.90
2022-10-16T19:06:52.701Z,99.90
2022-10-16T19:09:22.486Z,99.90
2022-10-16T19:14:21.737Z,99.90
2022-10-16T19:16:49.821Z,99.90
2022-10-16T19:19:19.297Z,99.90
2022-10-16T19:21:48.322Z,99.90
2022-10-16T19:24:16.991Z,99.90
2022-10-16T19:26:45.165Z,99.90
2022-10-16T19:29:13.498Z,99.90
2022-10-16T19:31:42.901Z,99.90
2022-10-16T19:34:12.608Z,99.90
2022-10-16T19:36:41.903Z,99.90
2022-10-16T19:39:13.597Z,99.90
2022-10-16T19:41:42.061Z,99.90
2022-10-16T19:44:14.407Z,99.90
2022-10-16T19:46:45.510Z,99.90
2022-10-16T19:49:15.037Z,99.90
2022-10-16T19:51:43.085Z,99.90
2022-10-16T19:54:13.685Z,99.90
2022-10-16T19:56:42.581Z,99.90
2022-10-16T19:59:13.014Z,99.90
2022-10-16T20:01:41.290Z,99.90
2022-10-16T20:04:11.090Z,99.90
2022-10-16T20:06:39.191Z,99.90
2022-10-16T20:09:07.390Z,99.90
2022-10-16T20:11:36.644Z,99.90
2022-10-16T20:14:05.861Z,99.90
2022-10-16T20:16:34.105Z,99.90
2022-10-16T20:19:02.489Z,99.90
2022-10-16T20:21:35.111Z,99.90
2022-10-16T20:24:05.059Z,99.90
2022-10-16T20:26:33.353Z,99.90
2022-10-16T20:29:02.111Z,99.90
2022-10-16T20:31:31.701Z,99.90
2022-10-16T20:34:03.043Z,99.90
2022-10-16T20:36:33.430Z,99.90
2022-10-16T20:39:01.929Z,99.90
2022-10-16T20:41:30.060Z,99.90
2022-10-16T20:43:58.123Z,99.90
2022-10-16T20:46:27.791Z,99.90
2022-10-16T20:49:05.955Z,99.90
2022-10-16T20:51:40.839Z,99.90
2022-10-16T20:54:08.943Z,99.90
2022-10-16T20:56:38.172Z,99.90
2022-10-16T20:59:06.907Z,99.90
2022-10-16T21:01:36.635Z,99.90
2022-10-16T21:04:07.772Z,99.90
2022-10-16T21:06:37.416Z,99.90
2022-10-16T21:09:07.716Z,99.90
2022-10-16T21:11:37.740Z,99.90
2022-10-16T21:14:08.191Z,99.90
2022-10-16T21:16:36.877Z,99.90
2022-10-16T21:19:05.064Z,99.90
2022-10-16T21:21:35.604Z,99.90
2022-10-16T21:24:04.398Z,99.90
2022-10-16T21:26:33.956Z,99.90
2022-10-16T21:29:06.723Z,99.90
2022-10-16T21:31:35.058Z,99.90
2022-10-16T21:34:03.688Z,99.90
2022-10-16T21:36:33.847Z,99.90
2022-10-16T21:39:03.370Z,99.90
2022-10-16T21:41:33.756Z,99.90
2022-10-16T21:44:02.647Z,99.90
2022-10-16T21:46:32.702Z,99.90
2022-10-16T21:49:02.591Z,99.90
2022-10-16T21:51:33.675Z,99.90
2022-10-16T21:54:01.729Z,99.90
2022-10-16T21:56:30.141Z,99.90
2022-10-16T21:58:59.850Z,99.90
2022-10-16T22:01:29.296Z,99.90
2022-10-16T22:03:57.441Z,99.90
2022-10-16T22:06:29.642Z,99.90
2022-10-16T22:09:01.616Z,99.90
2022-10-16T22:11:36.454Z,99.90
2022-10-16T22:14:07.474Z,99.90
2022-10-16T22:16:36.336Z,99.90
2022-10-16T22:19:07.168Z,99.90
2022-10-16T22:21:37.161Z,99.90
2022-10-16T22:24:06.036Z,99.90
2022-10-16T22:26:34.417Z,99.90
2022-10-16T22:29:02.480Z,99.90
2022-10-16T22:31:32.094Z,99.90
2022-10-16T22:34:02.869Z,99.90
2022-10-16T22:36:31.453Z,99.90
2022-10-16T22:38:59.898Z,99.90
2022-10-16T22:41:27.924Z,99.90
2022-10-16T22:43:55.978Z,99.90
2022-10-16T22:46:26.307Z,99.90
2022-10-16T22:48:56.324Z,99.90
2022-10-16T22:51:25.097Z,99.90
2022-10-16T22:53:53.073Z,99.90
2022-10-16T22:56:22.974Z,99.90
2022-10-16T22:58:51.245Z,99.90
2022-10-16T23:01:21.391Z,99.90
2022-10-16T23:03:49.646Z,99.90
2022-10-16T23:06:18.996Z,99.90
2022-10-16T23:08:51.042Z,99.90
2022-10-16T23:11:19.078Z,99.90
2022-10-16T23:13:47.181Z,99.90
2022-10-16T23:16:17.862Z,99.90
2022-10-16T23:18:46.196Z,99.90
2022-10-16T23:21:16.180Z,99.90
2022-10-16T23:23:45.849Z,99.90
2022-10-16T23:26:16.191Z,99.90
2022-10-16T23:28:44.365Z,99.90
2022-10-16T23:31:13.999Z,99.90
2022-10-16T23:33:42.771Z,99.90
2022-10-16T23:36:12.852Z,99.90
2022-10-16T23:38:40.910Z,99.90
2022-10-16T23:41:10.725Z,99.90
2022-10-16T23:43:38.968Z,99.90
2022-10-16T23:46:07.904Z,99.90
2022-10-16T23:48:38.155Z,99.90
2022-10-16T23:51:06.885Z,99.90
2022-10-16T23:53:35.015Z,99.90
2022-10-16T23:56:03.015Z,99.90
2022-10-16T23:58:32.407Z,99.90
